Big Flats, Wisconsin
Current Conditions -  °F | °C
As of 6:58 PM on Tuesday 27 Jan 2015 (Local Time) from KVOK Reporting Station
Overcast Overcast  
Wind Chill: 20°   Ceiling: 1400
Heat Index: 27°   Visibility: 7mi
Dew Point: 27°   Wind: 6mph
Humidity: 100%   Direction: 110°ESE
Pressure: 30.19"   Gusts: NA
Location:  44.0724°N, 89.9031°W
Report Text: KVOK 280058Z 11005KT 7SM OVC014 M03/M03 A3019 RMK AO2A SLP240
Loading
Personal Weather Stations






























Interactive Weather Map New forecast layout! Learn more

10-Day Weather Forecast

Advertisements
Track Severe Weather on mobile